sensor_id;sensor_type;location;lat;lon;timestamp;P1;durP1;ratioP1;P2;durP2;ratioP2
5801;SDS011;2927;49.366;8.530;2023-12-14T00:02:24;13.80;;;8.67;;
5801;SDS011;2927;49.366;8.530;2023-12-14T00:04:49;13.97;;;7.73;;
5801;SDS011;2927;49.366;8.530;2023-12-14T00:07:14;14.97;;;7.90;;
5801;SDS011;2927;49.366;8.530;2023-12-14T00:09:41;14.70;;;9.10;;
5801;SDS011;2927;49.366;8.530;2023-12-14T00:12:06;12.23;;;7.77;;
5801;SDS011;2927;49.366;8.530;2023-12-14T00:14:32;11.93;;;8.30;;
5801;SDS011;2927;49.366;8.530;2023-12-14T00:16:57;11.23;;;6.90;;
5801;SDS011;2927;49.366;8.530;2023-12-14T00:19:24;12.37;;;8.47;;
5801;SDS011;2927;49.366;8.530;2023-12-14T00:21:49;15.77;;;9.07;;
5801;SDS011;2927;49.366;8.530;2023-12-14T00:24:15;13.50;;;8.30;;
5801;SDS011;2927;49.366;8.530;2023-12-14T00:26:41;11.20;;;7.80;;
5801;SDS011;2927;49.366;8.530;2023-12-14T00:29:06;15.03;;;8.57;;
5801;SDS011;2927;49.366;8.530;2023-12-14T00:31:32;17.33;;;8.73;;
5801;SDS011;2927;49.366;8.530;2023-12-14T00:33:57;11.83;;;8.30;;
5801;SDS011;2927;49.366;8.530;2023-12-14T00:36:23;13.50;;;8.93;;
5801;SDS011;2927;49.366;8.530;2023-12-14T00:38:48;13.93;;;9.07;;
5801;SDS011;2927;49.366;8.530;2023-12-14T00:41:13;14.40;;;8.40;;
5801;SDS011;2927;49.366;8.530;2023-12-14T00:43:39;13.40;;;8.27;;
5801;SDS011;2927;49.366;8.530;2023-12-14T00:46:05;12.70;;;8.90;;
5801;SDS011;2927;49.366;8.530;2023-12-14T00:48:30;12.37;;;7.83;;
5801;SDS011;2927;49.366;8.530;2023-12-14T00:50:56;15.97;;;8.00;;
5801;SDS011;2927;49.366;8.530;2023-12-14T00:53:21;12.40;;;7.87;;
5801;SDS011;2927;49.366;8.530;2023-12-14T00:55:47;13.10;;;7.70;;
5801;SDS011;2927;49.366;8.530;2023-12-14T00:58:13;11.90;;;8.30;;
5801;SDS011;2927;49.366;8.530;2023-12-14T01:00:38;13.07;;;7.90;;
5801;SDS011;2927;49.366;8.530;2023-12-14T01:03:04;13.63;;;8.37;;
5801;SDS011;2927;49.366;8.530;2023-12-14T01:05:29;20.67;;;8.30;;
5801;SDS011;2927;49.366;8.530;2023-12-14T01:07:55;12.77;;;8.50;;
5801;SDS011;2927;49.366;8.530;2023-12-14T01:10:20;15.20;;;8.77;;
5801;SDS011;2927;49.366;8.530;2023-12-14T01:12:47;10.87;;;6.93;;
5801;SDS011;2927;49.366;8.530;2023-12-14T01:15:12;9.60;;;7.30;;
5801;SDS011;2927;49.366;8.530;2023-12-14T01:17:38;11.67;;;7.80;;
5801;SDS011;2927;49.366;8.530;2023-12-14T01:20:07;13.03;;;7.60;;
5801;SDS011;2927;49.366;8.530;2023-12-14T01:22:33;10.57;;;7.83;;
5801;SDS011;2927;49.366;8.530;2023-12-14T01:24:59;13.37;;;8.97;;
5801;SDS011;2927;49.366;8.530;2023-12-14T01:27:24;14.70;;;8.07;;
5801;SDS011;2927;49.366;8.530;2023-12-14T01:29:50;16.43;;;8.20;;
5801;SDS011;2927;49.366;8.530;2023-12-14T01:32:16;16.00;;;9.13;;
5801;SDS011;2927;49.366;8.530;2023-12-14T01:34:41;13.60;;;8.53;;
5801;SDS011;2927;49.366;8.530;2023-12-14T01:37:07;18.17;;;8.50;;
5801;SDS011;2927;49.366;8.530;2023-12-14T01:39:32;13.73;;;8.20;;
5801;SDS011;2927;49.366;8.530;2023-12-14T01:41:58;16.90;;;9.00;;
5801;SDS011;2927;49.366;8.530;2023-12-14T01:44:23;11.40;;;8.13;;
5801;SDS011;2927;49.366;8.530;2023-12-14T01:46:49;14.50;;;9.20;;
5801;SDS011;2927;49.366;8.530;2023-12-14T01:49:15;13.30;;;8.13;;
5801;SDS011;2927;49.366;8.530;2023-12-14T01:51:40;14.73;;;8.27;;
5801;SDS011;2927;49.366;8.530;2023-12-14T01:54:06;14.40;;;9.50;;
5801;SDS011;2927;49.366;8.530;2023-12-14T01:56:31;13.60;;;8.80;;
5801;SDS011;2927;49.366;8.530;2023-12-14T01:58:57;14.13;;;9.27;;
5801;SDS011;2927;49.366;8.530;2023-12-14T02:01:40;19.47;;;9.20;;
5801;SDS011;2927;49.366;8.530;2023-12-14T02:04:10;20.83;;;11.50;;
5801;SDS011;2927;49.366;8.530;2023-12-14T02:06:36;15.57;;;9.00;;
5801;SDS011;2927;49.366;8.530;2023-12-14T02:09:02;17.93;;;9.27;;
5801;SDS011;2927;49.366;8.530;2023-12-14T02:11:28;14.23;;;8.50;;
5801;SDS011;2927;49.366;8.530;2023-12-14T02:13:54;12.97;;;9.23;;
5801;SDS011;2927;49.366;8.530;2023-12-14T02:16:20;18.20;;;9.53;;
5801;SDS011;2927;49.366;8.530;2023-12-14T02:18:45;17.10;;;8.77;;
5801;SDS011;2927;49.366;8.530;2023-12-14T02:21:11;11.80;;;8.63;;
5801;SDS011;2927;49.366;8.530;2023-12-14T02:23:46;13.63;;;8.67;;
5801;SDS011;2927;49.366;8.530;2023-12-14T02:26:12;14.10;;;9.60;;
5801;SDS011;2927;49.366;8.530;2023-12-14T02:28:38;12.30;;;8.60;;
5801;SDS011;2927;49.366;8.530;2023-12-14T02:31:03;14.77;;;9.17;;
5801;SDS011;2927;49.366;8.530;2023-12-14T02:33:29;13.30;;;8.10;;
5801;SDS011;2927;49.366;8.530;2023-12-14T02:35:55;15.40;;;9.10;;
5801;SDS011;2927;49.366;8.530;2023-12-14T02:38:20;12.47;;;8.07;;
5801;SDS011;2927;49.366;8.530;2023-12-14T02:40:46;10.77;;;7.97;;
5801;SDS011;2927;49.366;8.530;2023-12-14T02:43:12;15.63;;;8.50;;
5801;SDS011;2927;49.366;8.530;2023-12-14T02:45:37;14.03;;;8.17;;
5801;SDS011;2927;49.366;8.530;2023-12-14T02:48:03;16.40;;;9.60;;
5801;SDS011;2927;49.366;8.530;2023-12-14T02:50:29;17.40;;;9.00;;
5801;SDS011;2927;49.366;8.530;2023-12-14T02:52:55;14.80;;;8.60;;
5801;SDS011;2927;49.366;8.530;2023-12-14T02:55:22;13.43;;;8.67;;
5801;SDS011;2927;49.366;8.530;2023-12-14T02:57:47;14.27;;;9.00;;
5801;SDS011;2927;49.366;8.530;2023-12-14T03:00:13;18.00;;;8.57;;
5801;SDS011;2927;49.366;8.530;2023-12-14T03:02:39;17.17;;;9.67;;
5801;SDS011;2927;49.366;8.530;2023-12-14T03:05:04;14.00;;;9.00;;
5801;SDS011;2927;49.366;8.530;2023-12-14T03:07:30;17.80;;;9.50;;
5801;SDS011;2927;49.366;8.530;2023-12-14T03:09:56;16.43;;;9.50;;
5801;SDS011;2927;49.366;8.530;2023-12-14T03:12:21;17.37;;;9.67;;
5801;SDS011;2927;49.366;8.530;2023-12-14T03:14:47;18.63;;;9.30;;
5801;SDS011;2927;49.366;8.530;2023-12-14T03:17:12;15.27;;;9.83;;
5801;SDS011;2927;49.366;8.530;2023-12-14T03:19:39;17.27;;;8.57;;
5801;SDS011;2927;49.366;8.530;2023-12-14T03:22:06;21.50;;;10.10;;
5801;SDS011;2927;49.366;8.530;2023-12-14T03:24:32;22.27;;;10.00;;
5801;SDS011;2927;49.366;8.530;2023-12-14T03:26:57;14.37;;;9.00;;
5801;SDS011;2927;49.366;8.530;2023-12-14T03:29:23;18.33;;;9.50;;
5801;SDS011;2927;49.366;8.530;2023-12-14T03:31:48;20.70;;;9.60;;
5801;SDS011;2927;49.366;8.530;2023-12-14T03:34:14;18.67;;;10.33;;
5801;SDS011;2927;49.366;8.530;2023-12-14T03:36:40;17.80;;;10.33;;
5801;SDS011;2927;49.366;8.530;2023-12-14T03:39:05;15.03;;;9.37;;
5801;SDS011;2927;49.366;8.530;2023-12-14T03:41:31;18.67;;;9.20;;
5801;SDS011;2927;49.366;8.530;2023-12-14T03:43:57;18.23;;;9.17;;
5801;SDS011;2927;49.366;8.530;2023-12-14T03:46:23;18.10;;;9.47;;
5801;SDS011;2927;49.366;8.530;2023-12-14T03:48:48;21.30;;;10.60;;
5801;SDS011;2927;49.366;8.530;2023-12-14T03:51:17;14.33;;;8.37;;
5801;SDS011;2927;49.366;8.530;2023-12-14T03:53:46;17.37;;;9.87;;
5801;SDS011;2927;49.366;8.530;2023-12-14T03:56:12;18.07;;;9.20;;
5801;SDS011;2927;49.366;8.530;2023-12-14T03:58:37;17.27;;;9.80;;
5801;SDS011;2927;49.366;8.530;2023-12-14T04:01:03;19.03;;;8.90;;
5801;SDS011;2927;49.366;8.530;2023-12-14T04:03:29;14.80;;;9.40;;
5801;SDS011;2927;49.366;8.530;2023-12-14T04:05:54;14.53;;;8.40;;
5801;SDS011;2927;49.366;8.530;2023-12-14T04:08:20;16.37;;;9.20;;
5801;SDS011;2927;49.366;8.530;2023-12-14T04:10:45;14.47;;;8.10;;
5801;SDS011;2927;49.366;8.530;2023-12-14T04:13:11;17.93;;;10.03;;
5801;SDS011;2927;49.366;8.530;2023-12-14T04:15:36;14.20;;;8.87;;
5801;SDS011;2927;49.366;8.530;2023-12-14T04:18:02;14.60;;;8.40;;
5801;SDS011;2927;49.366;8.530;2023-12-14T04:20:28;19.83;;;9.00;;
5801;SDS011;2927;49.366;8.530;2023-12-14T04:22:54;20.30;;;9.40;;
5801;SDS011;2927;49.366;8.530;2023-12-14T04:25:20;14.27;;;8.33;;
5801;SDS011;2927;49.366;8.530;2023-12-14T04:27:47;20.10;;;9.07;;
5801;SDS011;2927;49.366;8.530;2023-12-14T04:30:12;14.27;;;7.97;;
5801;SDS011;2927;49.366;8.530;2023-12-14T04:32:38;16.37;;;9.50;;
5801;SDS011;2927;49.366;8.530;2023-12-14T04:35:04;17.97;;;9.80;;
5801;SDS011;2927;49.366;8.530;2023-12-14T04:37:30;19.57;;;10.13;;
5801;SDS011;2927;49.366;8.530;2023-12-14T04:39:59;18.93;;;9.63;;
5801;SDS011;2927;49.366;8.530;2023-12-14T04:42:25;21.97;;;11.43;;
5801;SDS011;2927;49.366;8.530;2023-12-14T04:44:51;17.53;;;9.67;;
5801;SDS011;2927;49.366;8.530;2023-12-14T04:47:16;20.20;;;10.93;;
5801;SDS011;2927;49.366;8.530;2023-12-14T04:49:42;22.70;;;11.37;;
5801;SDS011;2927;49.366;8.530;2023-12-14T04:52:08;24.80;;;12.27;;
5801;SDS011;2927;49.366;8.530;2023-12-14T04:54:33;29.13;;;13.60;;
5801;SDS011;2927;49.366;8.530;2023-12-14T04:57:02;24.23;;;13.23;;
5801;SDS011;2927;49.366;8.530;2023-12-14T04:59:28;22.20;;;11.83;;
5801;SDS011;2927;49.366;8.530;2023-12-14T05:01:54;23.60;;;11.93;;
5801;SDS011;2927;49.366;8.530;2023-12-14T05:04:19;24.20;;;12.83;;
5801;SDS011;2927;49.366;8.530;2023-12-14T05:06:45;20.63;;;11.53;;
5801;SDS011;2927;49.366;8.530;2023-12-14T05:09:11;19.43;;;10.00;;
5801;SDS011;2927;49.366;8.530;2023-12-14T05:11:36;25.67;;;13.97;;
5801;SDS011;2927;49.366;8.530;2023-12-14T05:14:04;23.50;;;12.93;;
5801;SDS011;2927;49.366;8.530;2023-12-14T05:16:29;18.60;;;10.53;;
5801;SDS011;2927;49.366;8.530;2023-12-14T05:18:55;21.07;;;11.97;;
5801;SDS011;2927;49.366;8.530;2023-12-14T05:21:22;22.37;;;12.47;;
5801;SDS011;2927;49.366;8.530;2023-12-14T05:23:47;26.40;;;12.97;;
5801;SDS011;2927;49.366;8.530;2023-12-14T05:26:13;30.30;;;13.93;;
5801;SDS011;2927;49.366;8.530;2023-12-14T05:28:38;28.73;;;14.47;;
5801;SDS011;2927;49.366;8.530;2023-12-14T05:31:04;25.37;;;13.30;;
5801;SDS011;2927;49.366;8.530;2023-12-14T05:33:30;30.93;;;15.67;;
5801;SDS011;2927;49.366;8.530;2023-12-14T05:35:56;32.93;;;16.33;;
5801;SDS011;2927;49.366;8.530;2023-12-14T05:38:22;29.17;;;15.77;;
5801;SDS011;2927;49.366;8.530;2023-12-14T05:40:47;28.10;;;14.40;;
5801;SDS011;2927;49.366;8.530;2023-12-14T05:43:13;29.30;;;15.00;;
5801;SDS011;2927;49.366;8.530;2023-12-14T05:45:38;30.87;;;14.70;;
5801;SDS011;2927;49.366;8.530;2023-12-14T05:48:04;25.40;;;12.70;;
5801;SDS011;2927;49.366;8.530;2023-12-14T05:50:30;30.90;;;14.20;;
5801;SDS011;2927;49.366;8.530;2023-12-14T05:52:56;27.80;;;12.57;;
5801;SDS011;2927;49.366;8.530;2023-12-14T05:55:21;20.90;;;11.20;;
5801;SDS011;2927;49.366;8.530;2023-12-14T05:57:48;20.43;;;11.03;;
5801;SDS011;2927;49.366;8.530;2023-12-14T06:00:14;24.33;;;12.47;;
5801;SDS011;2927;49.366;8.530;2023-12-14T06:02:39;22.00;;;10.83;;
5801;SDS011;2927;49.366;8.530;2023-12-14T06:05:06;17.23;;;10.90;;
5801;SDS011;2927;49.366;8.530;2023-12-14T06:07:33;19.07;;;10.70;;
5801;SDS011;2927;49.366;8.530;2023-12-14T06:09:59;16.23;;;10.00;;
5801;SDS011;2927;49.366;8.530;2023-12-14T06:12:25;19.10;;;11.20;;
5801;SDS011;2927;49.366;8.530;2023-12-14T06:14:52;20.07;;;11.50;;
5801;SDS011;2927;49.366;8.530;2023-12-14T06:17:17;29.30;;;12.53;;
5801;SDS011;2927;49.366;8.530;2023-12-14T06:19:43;25.40;;;13.07;;
5801;SDS011;2927;49.366;8.530;2023-12-14T06:22:08;20.07;;;11.77;;
5801;SDS011;2927;49.366;8.530;2023-12-14T06:24:34;26.40;;;12.20;;
5801;SDS011;2927;49.366;8.530;2023-12-14T06:27:00;28.10;;;12.63;;
5801;SDS011;2927;49.366;8.530;2023-12-14T06:29:25;25.33;;;14.13;;
5801;SDS011;2927;49.366;8.530;2023-12-14T06:31:51;24.43;;;13.57;;
5801;SDS011;2927;49.366;8.530;2023-12-14T06:34:17;28.07;;;14.83;;
5801;SDS011;2927;49.366;8.530;2023-12-14T06:36:43;20.10;;;11.97;;
5801;SDS011;2927;49.366;8.530;2023-12-14T06:39:12;32.20;;;12.97;;
5801;SDS011;2927;49.366;8.530;2023-12-14T06:41:37;24.10;;;15.30;;
5801;SDS011;2927;49.366;8.530;2023-12-14T06:44:04;24.67;;;15.63;;
5801;SDS011;2927;49.366;8.530;2023-12-14T06:46:30;23.53;;;14.50;;
5801;SDS011;2927;49.366;8.530;2023-12-14T06:48:55;23.90;;;13.50;;
5801;SDS011;2927;49.366;8.530;2023-12-14T06:51:21;22.47;;;12.97;;
5801;SDS011;2927;49.366;8.530;2023-12-14T06:53:47;27.80;;;12.70;;
5801;SDS011;2927;49.366;8.530;2023-12-14T06:56:13;22.90;;;13.30;;
5801;SDS011;2927;49.366;8.530;2023-12-14T06:58:40;23.13;;;12.77;;
5801;SDS011;2927;49.366;8.530;2023-12-14T07:01:07;19.80;;;10.47;;
5801;SDS011;2927;49.366;8.530;2023-12-14T07:03:39;20.03;;;10.50;;
5801;SDS011;2927;49.366;8.530;2023-12-14T07:06:06;27.90;;;14.27;;
5801;SDS011;2927;49.366;8.530;2023-12-14T07:08:31;49.83;;;26.13;;
5801;SDS011;2927;49.366;8.530;2023-12-14T07:10:57;62.47;;;27.20;;
5801;SDS011;2927;49.366;8.530;2023-12-14T07:13:22;36.50;;;18.83;;
5801;SDS011;2927;49.366;8.530;2023-12-14T07:15:48;31.73;;;17.50;;
5801;SDS011;2927;49.366;8.530;2023-12-14T07:18:14;24.73;;;16.07;;
5801;SDS011;2927;49.366;8.530;2023-12-14T07:20:39;21.80;;;13.90;;
5801;SDS011;2927;49.366;8.530;2023-12-14T07:23:05;21.63;;;15.00;;
5801;SDS011;2927;49.366;8.530;2023-12-14T07:25:30;29.63;;;13.03;;
5801;SDS011;2927;49.366;8.530;2023-12-14T07:27:56;22.10;;;13.37;;
5801;SDS011;2927;49.366;8.530;2023-12-14T07:30:21;20.27;;;13.20;;
5801;SDS011;2927;49.366;8.530;2023-12-14T07:32:47;17.23;;;10.83;;
5801;SDS011;2927;49.366;8.530;2023-12-14T07:35:12;23.90;;;14.00;;
5801;SDS011;2927;49.366;8.530;2023-12-14T07:37:38;24.17;;;12.80;;
5801;SDS011;2927;49.366;8.530;2023-12-14T07:40:04;20.60;;;12.13;;
5801;SDS011;2927;49.366;8.530;2023-12-14T07:42:30;24.30;;;13.53;;
5801;SDS011;2927;49.366;8.530;2023-12-14T07:44:55;26.27;;;14.03;;
5801;SDS011;2927;49.366;8.530;2023-12-14T07:47:21;21.60;;;12.47;;
5801;SDS011;2927;49.366;8.530;2023-12-14T07:49:46;23.90;;;12.43;;
5801;SDS011;2927;49.366;8.530;2023-12-14T07:52:12;24.43;;;14.43;;
5801;SDS011;2927;49.366;8.530;2023-12-14T07:54:38;22.63;;;13.87;;
5801;SDS011;2927;49.366;8.530;2023-12-14T07:57:04;20.50;;;13.47;;
5801;SDS011;2927;49.366;8.530;2023-12-14T07:59:30;20.03;;;12.73;;
5801;SDS011;2927;49.366;8.530;2023-12-14T08:01:55;22.93;;;13.93;;
5801;SDS011;2927;49.366;8.530;2023-12-14T08:04:21;27.03;;;15.23;;
5801;SDS011;2927;49.366;8.530;2023-12-14T08:06:46;25.03;;;13.17;;
5801;SDS011;2927;49.366;8.530;2023-12-14T08:09:12;25.70;;;14.90;;
5801;SDS011;2927;49.366;8.530;2023-12-14T08:11:38;24.33;;;11.47;;
5801;SDS011;2927;49.366;8.530;2023-12-14T08:14:03;26.17;;;14.80;;
5801;SDS011;2927;49.366;8.530;2023-12-14T08:16:29;32.10;;;16.17;;
5801;SDS011;2927;49.366;8.530;2023-12-14T08:18:55;36.57;;;18.87;;
5801;SDS011;2927;49.366;8.530;2023-12-14T08:21:21;24.90;;;14.50;;
5801;SDS011;2927;49.366;8.530;2023-12-14T08:23:46;30.23;;;17.53;;
5801;SDS011;2927;49.366;8.530;2023-12-14T08:26:12;28.80;;;17.73;;
5801;SDS011;2927;49.366;8.530;2023-12-14T08:28:38;24.60;;;15.33;;
5801;SDS011;2927;49.366;8.530;2023-12-14T08:31:04;25.30;;;14.60;;
5801;SDS011;2927;49.366;8.530;2023-12-14T08:33:30;22.93;;;13.60;;
5801;SDS011;2927;49.366;8.530;2023-12-14T08:35:56;28.30;;;14.90;;
5801;SDS011;2927;49.366;8.530;2023-12-14T08:38:21;26.87;;;14.53;;
5801;SDS011;2927;49.366;8.530;2023-12-14T08:40:47;28.27;;;14.43;;
5801;SDS011;2927;49.366;8.530;2023-12-14T08:43:13;24.27;;;15.23;;
5801;SDS011;2927;49.366;8.530;2023-12-14T08:45:40;29.93;;;17.30;;
5801;SDS011;2927;49.366;8.530;2023-12-14T08:48:06;23.40;;;13.67;;
5801;SDS011;2927;49.366;8.530;2023-12-14T08:50:32;28.70;;;15.40;;
5801;SDS011;2927;49.366;8.530;2023-12-14T08:52:57;24.10;;;14.10;;
5801;SDS011;2927;49.366;8.530;2023-12-14T08:55:24;22.13;;;14.13;;
5801;SDS011;2927;49.366;8.530;2023-12-14T08:57:50;22.87;;;13.60;;
5801;SDS011;2927;49.366;8.530;2023-12-14T09:00:16;26.73;;;13.90;;
5801;SDS011;2927;49.366;8.530;2023-12-14T09:02:43;21.20;;;13.27;;
5801;SDS011;2927;49.366;8.530;2023-12-14T09:05:11;29.40;;;15.07;;
5801;SDS011;2927;49.366;8.530;2023-12-14T09:07:37;25.47;;;13.70;;
5801;SDS011;2927;49.366;8.530;2023-12-14T09:10:02;63.23;;;22.30;;
5801;SDS011;2927;49.366;8.530;2023-12-14T09:12:28;63.37;;;25.97;;
5801;SDS011;2927;49.366;8.530;2023-12-14T09:14:54;85.93;;;26.97;;
5801;SDS011;2927;49.366;8.530;2023-12-14T09:17:20;64.87;;;26.13;;
5801;SDS011;2927;49.366;8.530;2023-12-14T09:19:45;71.27;;;25.77;;
5801;SDS011;2927;49.366;8.530;2023-12-14T09:22:11;43.63;;;21.13;;
5801;SDS011;2927;49.366;8.530;2023-12-14T09:24:36;38.27;;;18.97;;
5801;SDS011;2927;49.366;8.530;2023-12-14T09:27:02;32.87;;;16.00;;
5801;SDS011;2927;49.366;8.530;2023-12-14T09:29:28;25.57;;;13.47;;
5801;SDS011;2927;49.366;8.530;2023-12-14T09:31:53;25.73;;;13.90;;
5801;SDS011;2927;49.366;8.530;2023-12-14T09:34:19;21.00;;;12.47;;
5801;SDS011;2927;49.366;8.530;2023-12-14T09:36:45;22.10;;;11.93;;
5801;SDS011;2927;49.366;8.530;2023-12-14T09:39:10;20.13;;;11.77;;
5801;SDS011;2927;49.366;8.530;2023-12-14T09:41:39;22.30;;;12.27;;
5801;SDS011;2927;49.366;8.530;2023-12-14T09:44:05;29.37;;;13.10;;
5801;SDS011;2927;49.366;8.530;2023-12-14T09:46:32;21.37;;;11.53;;
5801;SDS011;2927;49.366;8.530;2023-12-14T09:49:01;24.87;;;12.90;;
5801;SDS011;2927;49.366;8.530;2023-12-14T09:51:29;21.23;;;10.90;;
5801;SDS011;2927;49.366;8.530;2023-12-14T09:53:55;18.20;;;10.10;;
5801;SDS011;2927;49.366;8.530;2023-12-14T09:56:26;15.97;;;10.47;;
5801;SDS011;2927;49.366;8.530;2023-12-14T09:58:52;16.77;;;9.80;;
5801;SDS011;2927;49.366;8.530;2023-12-14T10:01:22;19.63;;;11.03;;
5801;SDS011;2927;49.366;8.530;2023-12-14T10:03:49;23.50;;;9.43;;
5801;SDS011;2927;49.366;8.530;2023-12-14T10:06:15;21.80;;;9.83;;
5801;SDS011;2927;49.366;8.530;2023-12-14T10:08:42;24.10;;;9.70;;
5801;SDS011;2927;49.366;8.530;2023-12-14T10:11:20;13.30;;;7.97;;
5801;SDS011;2927;49.366;8.530;2023-12-14T10:13:47;16.63;;;8.53;;
5801;SDS011;2927;49.366;8.530;2023-12-14T10:16:12;9.20;;;7.40;;
5801;SDS011;2927;49.366;8.530;2023-12-14T10:18:51;10.60;;;7.37;;
5801;SDS011;2927;49.366;8.530;2023-12-14T10:21:16;13.50;;;7.67;;
5801;SDS011;2927;49.366;8.530;2023-12-14T10:23:42;9.30;;;6.90;;
5801;SDS011;2927;49.366;8.530;2023-12-14T10:26:11;12.50;;;6.87;;
5801;SDS011;2927;49.366;8.530;2023-12-14T10:28:39;12.93;;;7.00;;
5801;SDS011;2927;49.366;8.530;2023-12-14T10:31:05;14.13;;;6.73;;
5801;SDS011;2927;49.366;8.530;2023-12-14T10:33:30;9.70;;;6.37;;
5801;SDS011;2927;49.366;8.530;2023-12-14T10:35:56;13.60;;;7.03;;
5801;SDS011;2927;49.366;8.530;2023-12-14T10:38:22;27.70;;;14.00;;
5801;SDS011;2927;49.366;8.530;2023-12-14T10:40:49;26.83;;;14.50;;
5801;SDS011;2927;49.366;8.530;2023-12-14T10:43:16;18.67;;;8.37;;
5801;SDS011;2927;49.366;8.530;2023-12-14T10:45:43;11.50;;;8.40;;
5801;SDS011;2927;49.366;8.530;2023-12-14T10:48:13;11.63;;;5.80;;
5801;SDS011;2927;49.366;8.530;2023-12-14T10:50:39;9.30;;;6.07;;
5801;SDS011;2927;49.366;8.530;2023-12-14T10:53:07;9.77;;;6.70;;
5801;SDS011;2927;49.366;8.530;2023-12-14T10:55:37;10.20;;;6.23;;
5801;SDS011;2927;49.366;8.530;2023-12-14T10:58:07;9.77;;;5.77;;
5801;SDS011;2927;49.366;8.530;2023-12-14T11:00:34;7.50;;;5.17;;
5801;SDS011;2927;49.366;8.530;2023-12-14T11:03:00;14.90;;;8.37;;
5801;SDS011;2927;49.366;8.530;2023-12-14T11:05:26;10.10;;;7.10;;
5801;SDS011;2927;49.366;8.530;2023-12-14T11:07:56;7.90;;;6.03;;
5801;SDS011;2927;49.366;8.530;2023-12-14T11:10:26;10.90;;;6.57;;
5801;SDS011;2927;49.366;8.530;2023-12-14T11:12:57;9.27;;;6.10;;
5801;SDS011;2927;49.366;8.530;2023-12-14T11:15:30;18.13;;;11.80;;
5801;SDS011;2927;49.366;8.530;2023-12-14T11:18:33;23.87;;;12.07;;
5801;SDS011;2927;49.366;8.530;2023-12-14T11:20:53;17.60;;;9.43;;
5801;SDS011;2927;49.366;8.530;2023-12-14T11:25:50;19.07;;;11.33;;
5801;SDS011;2927;49.366;8.530;2023-12-14T11:28:21;18.53;;;9.70;;
5801;SDS011;2927;49.366;8.530;2023-12-14T11:30:47;12.67;;;6.60;;
5801;SDS011;2927;49.366;8.530;2023-12-14T11:33:13;20.20;;;6.73;;
5801;SDS011;2927;49.366;8.530;2023-12-14T11:35:40;17.00;;;9.13;;
5801;SDS011;2927;49.366;8.530;2023-12-14T11:38:06;14.50;;;7.20;;
5801;SDS011;2927;49.366;8.530;2023-12-14T11:40:38;14.27;;;7.70;;
5801;SDS011;2927;49.366;8.530;2023-12-14T11:43:05;12.03;;;7.43;;
5801;SDS011;2927;49.366;8.530;2023-12-14T11:45:34;11.43;;;6.53;;
5801;SDS011;2927;49.366;8.530;2023-12-14T11:48:01;20.03;;;8.90;;
5801;SDS011;2927;49.366;8.530;2023-12-14T11:50:30;17.90;;;11.40;;
5801;SDS011;2927;49.366;8.530;2023-12-14T11:53:02;14.03;;;9.60;;
5801;SDS011;2927;49.366;8.530;2023-12-14T11:55:28;21.17;;;10.20;;
5801;SDS011;2927;49.366;8.530;2023-12-14T11:57:55;18.43;;;8.67;;
5801;SDS011;2927;49.366;8.530;2023-12-14T12:00:27;13.60;;;7.63;;
5801;SDS011;2927;49.366;8.530;2023-12-14T12:05:39;18.50;;;10.00;;
5801;SDS011;2927;49.366;8.530;2023-12-14T12:08:12;13.47;;;8.13;;
5801;SDS011;2927;49.366;8.530;2023-12-14T12:10:39;12.33;;;7.77;;
5801;SDS011;2927;49.366;8.530;2023-12-14T12:13:06;14.03;;;8.23;;
5801;SDS011;2927;49.366;8.530;2023-12-14T12:15:36;25.13;;;12.10;;
5801;SDS011;2927;49.366;8.530;2023-12-14T12:18:08;16.73;;;9.47;;
5801;SDS011;2927;49.366;8.530;2023-12-14T12:20:35;15.97;;;8.60;;
5801;SDS011;2927;49.366;8.530;2023-12-14T12:23:01;17.00;;;8.53;;
5801;SDS011;2927;49.366;8.530;2023-12-14T12:25:27;11.20;;;6.87;;
5801;SDS011;2927;49.366;8.530;2023-12-14T12:27:56;19.20;;;8.60;;
5801;SDS011;2927;49.366;8.530;2023-12-14T12:30:23;16.47;;;7.40;;
5801;SDS011;2927;49.366;8.530;2023-12-14T12:32:49;15.43;;;8.90;;
5801;SDS011;2927;49.366;8.530;2023-12-14T12:35:21;12.37;;;7.37;;
5801;SDS011;2927;49.366;8.530;2023-12-14T12:37:47;12.10;;;7.20;;
5801;SDS011;2927;49.366;8.530;2023-12-14T12:40:18;11.40;;;7.17;;
5801;SDS011;2927;49.366;8.530;2023-12-14T12:42:45;11.20;;;6.17;;
5801;SDS011;2927;49.366;8.530;2023-12-14T12:45:13;11.03;;;6.63;;
5801;SDS011;2927;49.366;8.530;2023-12-14T12:47:39;14.13;;;6.63;;
5801;SDS011;2927;49.366;8.530;2023-12-14T12:50:05;15.17;;;7.20;;
5801;SDS011;2927;49.366;8.530;2023-12-14T12:52:31;12.53;;;6.23;;
5801;SDS011;2927;49.366;8.530;2023-12-14T12:54:56;17.67;;;6.33;;
5801;SDS011;2927;49.366;8.530;2023-12-14T12:57:22;10.90;;;6.63;;
5801;SDS011;2927;49.366;8.530;2023-12-14T12:59:48;12.80;;;6.30;;
5801;SDS011;2927;49.366;8.530;2023-12-14T13:02:13;11.43;;;7.10;;
5801;SDS011;2927;49.366;8.530;2023-12-14T13:04:39;13.70;;;6.67;;
5801;SDS011;2927;49.366;8.530;2023-12-14T13:07:04;12.43;;;7.00;;
5801;SDS011;2927;49.366;8.530;2023-12-14T13:09:30;12.23;;;7.20;;
5801;SDS011;2927;49.366;8.530;2023-12-14T13:11:56;16.57;;;7.13;;
5801;SDS011;2927;49.366;8.530;2023-12-14T13:14:21;12.13;;;7.17;;
5801;SDS011;2927;49.366;8.530;2023-12-14T13:16:47;13.00;;;7.00;;
5801;SDS011;2927;49.366;8.530;2023-12-14T13:19:13;11.10;;;6.83;;
5801;SDS011;2927;49.366;8.530;2023-12-14T13:21:38;12.83;;;7.23;;
5801;SDS011;2927;49.366;8.530;2023-12-14T13:24:04;14.30;;;8.23;;
5801;SDS011;2927;49.366;8.530;2023-12-14T13:26:29;12.00;;;6.00;;
5801;SDS011;2927;49.366;8.530;2023-12-14T13:28:55;11.03;;;6.50;;
5801;SDS011;2927;49.366;8.530;2023-12-14T13:31:21;13.90;;;7.80;;
5801;SDS011;2927;49.366;8.530;2023-12-14T13:33:47;17.30;;;7.10;;
5801;SDS011;2927;49.366;8.530;2023-12-14T13:36:14;15.53;;;7.47;;
5801;SDS011;2927;49.366;8.530;2023-12-14T13:38:40;19.10;;;7.90;;
5801;SDS011;2927;49.366;8.530;2023-12-14T13:41:06;13.10;;;7.27;;
5801;SDS011;2927;49.366;8.530;2023-12-14T13:43:32;17.80;;;8.20;;
5801;SDS011;2927;49.366;8.530;2023-12-14T13:45:58;15.83;;;8.00;;
5801;SDS011;2927;49.366;8.530;2023-12-14T13:48:24;13.93;;;6.80;;
5801;SDS011;2927;49.366;8.530;2023-12-14T13:50:50;20.00;;;9.30;;
5801;SDS011;2927;49.366;8.530;2023-12-14T13:53:15;19.13;;;8.73;;
5801;SDS011;2927;49.366;8.530;2023-12-14T13:55:41;15.13;;;8.90;;
5801;SDS011;2927;49.366;8.530;2023-12-14T13:58:07;14.70;;;8.17;;
5801;SDS011;2927;49.366;8.530;2023-12-14T14:00:32;17.93;;;8.83;;
5801;SDS011;2927;49.366;8.530;2023-12-14T14:02:59;17.17;;;8.57;;
5801;SDS011;2927;49.366;8.530;2023-12-14T14:05:25;18.13;;;8.40;;
5801;SDS011;2927;49.366;8.530;2023-12-14T14:07:51;18.40;;;9.37;;
5801;SDS011;2927;49.366;8.530;2023-12-14T14:10:17;15.30;;;8.63;;
5801;SDS011;2927;49.366;8.530;2023-12-14T14:12:43;13.77;;;7.40;;
5801;SDS011;2927;49.366;8.530;2023-12-14T14:15:09;17.57;;;8.37;;
5801;SDS011;2927;49.366;8.530;2023-12-14T14:17:35;13.87;;;7.60;;
5801;SDS011;2927;49.366;8.530;2023-12-14T14:20:00;14.53;;;7.20;;
5801;SDS011;2927;49.366;8.530;2023-12-14T14:22:26;13.50;;;7.70;;
5801;SDS011;2927;49.366;8.530;2023-12-14T14:24:52;12.70;;;7.03;;
5801;SDS011;2927;49.366;8.530;2023-12-14T14:27:17;18.67;;;7.70;;
5801;SDS011;2927;49.366;8.530;2023-12-14T14:29:43;15.90;;;7.57;;
5801;SDS011;2927;49.366;8.530;2023-12-14T14:32:08;13.87;;;7.40;;
5801;SDS011;2927;49.366;8.530;2023-12-14T14:34:34;14.63;;;7.93;;
5801;SDS011;2927;49.366;8.530;2023-12-14T14:37:00;14.27;;;7.27;;
5801;SDS011;2927;49.366;8.530;2023-12-14T14:39:26;13.77;;;7.23;;
5801;SDS011;2927;49.366;8.530;2023-12-14T14:41:52;13.23;;;7.17;;
5801;SDS011;2927;49.366;8.530;2023-12-14T14:44:18;14.77;;;7.43;;
5801;SDS011;2927;49.366;8.530;2023-12-14T14:46:43;14.53;;;7.33;;
5801;SDS011;2927;49.366;8.530;2023-12-14T14:49:09;18.27;;;8.03;;
5801;SDS011;2927;49.366;8.530;2023-12-14T14:51:35;13.60;;;7.10;;
5801;SDS011;2927;49.366;8.530;2023-12-14T14:54:01;16.13;;;7.20;;
5801;SDS011;2927;49.366;8.530;2023-12-14T14:56:26;16.73;;;8.23;;